首页
METAR-TAF:

METAR-TAF

机场 :

长春龙嘉国际机场

长春, 中华人民共和国

纬度: 43-54N, 经度: 125-13E, 海拔: 238米

当前天气观测

该预报发布于1小时和2分钟前的01:00 UTC
风速4节,风向多变
温度 23°C
湿度 27%
气压 1009 hPa
能见度10公里或以上
1500米以下无云,无积雨云

METAR: ZYCC 260100Z VRB02MPS CAVOK 23/03 Q1009 NOSIG

时间: 10:02 (02:02 UTC)

预报

该预报发布于6小时和53分钟前的19:09 UTC
预报有效从26日的 00点(UTC)到 26日的 24点(UTC)
风速8节,风向
能見度: 6000
少量云层高于2300英尺

TAF: ZYCC 251909Z 2600/2624 09004MPS 6000 FEW023 TX26/2606Z TN14/2621Z

超过4000个机场的气象观测和天气预报(METAR&TAF报告)。

可查询的气象台以黄色和红色小点在地图上表示。

将鼠标移到小点上方,可查看气象台名称。

然后点击查看天气观测和预报。

如需切换地图:点击带黑十字的绿色按钮放大地图;点击带横线的绿色按钮缩小地图;或者点击绿色箭头查看邻近地区的地图。


METAR-TAF: